sensor_id;sensor_type;location;lat;lon;timestamp;P1;durP1;ratioP1;P2;durP2;ratioP2
72728;SDS011;60843;52.062;4.508;2023-03-01T00:01:10;11.45;;;5.50;;
72728;SDS011;60843;52.062;4.508;2023-03-01T00:03:36;12.48;;;5.93;;
72728;SDS011;60843;52.062;4.508;2023-03-01T00:06:02;11.70;;;6.22;;
72728;SDS011;60843;52.062;4.508;2023-03-01T00:08:28;8.55;;;5.18;;
72728;SDS011;60843;52.062;4.508;2023-03-01T00:13:27;12.55;;;6.65;;
72728;SDS011;60843;52.062;4.508;2023-03-01T00:15:52;12.40;;;6.95;;
72728;SDS011;60843;52.062;4.508;2023-03-01T00:18:18;10.90;;;5.50;;
72728;SDS011;60843;52.062;4.508;2023-03-01T00:20:51;16.05;;;7.18;;
72728;SDS011;60843;52.062;4.508;2023-03-01T00:23:17;10.10;;;5.68;;
72728;SDS011;60843;52.062;4.508;2023-03-01T00:25:43;13.55;;;6.55;;
72728;SDS011;60843;52.062;4.508;2023-03-01T00:28:08;11.55;;;6.63;;
72728;SDS011;60843;52.062;4.508;2023-03-01T00:30:34;12.80;;;7.20;;
72728;SDS011;60843;52.062;4.508;2023-03-01T00:32:59;13.85;;;5.10;;
72728;SDS011;60843;52.062;4.508;2023-03-01T00:35:25;11.90;;;6.60;;
72728;SDS011;60843;52.062;4.508;2023-03-01T00:37:50;12.80;;;6.30;;
72728;SDS011;60843;52.062;4.508;2023-03-01T00:40:23;12.88;;;6.20;;
72728;SDS011;60843;52.062;4.508;2023-03-01T00:42:51;12.90;;;6.95;;
72728;SDS011;60843;52.062;4.508;2023-03-01T00:45:17;15.05;;;6.32;;
72728;SDS011;60843;52.062;4.508;2023-03-01T00:47:43;12.60;;;7.22;;
72728;SDS011;60843;52.062;4.508;2023-03-01T00:50:09;13.45;;;7.30;;
72728;SDS011;60843;52.062;4.508;2023-03-01T00:52:35;16.63;;;6.72;;
72728;SDS011;60843;52.062;4.508;2023-03-01T00:55:01;16.08;;;7.63;;
72728;SDS011;60843;52.062;4.508;2023-03-01T00:57:26;12.98;;;7.05;;
72728;SDS011;60843;52.062;4.508;2023-03-01T00:59:52;14.68;;;7.72;;
72728;SDS011;60843;52.062;4.508;2023-03-01T01:02:18;15.48;;;7.70;;
72728;SDS011;60843;52.062;4.508;2023-03-01T01:04:44;17.65;;;6.60;;
72728;SDS011;60843;52.062;4.508;2023-03-01T01:07:10;13.95;;;7.35;;
72728;SDS011;60843;52.062;4.508;2023-03-01T01:09:35;13.52;;;6.70;;
72728;SDS011;60843;52.062;4.508;2023-03-01T01:12:01;13.20;;;6.53;;
72728;SDS011;60843;52.062;4.508;2023-03-01T01:14:27;13.10;;;6.18;;
72728;SDS011;60843;52.062;4.508;2023-03-01T01:16:53;16.20;;;7.55;;
72728;SDS011;60843;52.062;4.508;2023-03-01T01:19:18;15.73;;;7.53;;
72728;SDS011;60843;52.062;4.508;2023-03-01T01:21:44;13.18;;;6.53;;
72728;SDS011;60843;52.062;4.508;2023-03-01T01:24:10;13.48;;;7.25;;
72728;SDS011;60843;52.062;4.508;2023-03-01T01:26:37;20.45;;;8.15;;
72728;SDS011;60843;52.062;4.508;2023-03-01T01:29:03;21.58;;;9.45;;
72728;SDS011;60843;52.062;4.508;2023-03-01T01:31:29;19.10;;;8.50;;
72728;SDS011;60843;52.062;4.508;2023-03-01T01:33:56;17.73;;;9.32;;
72728;SDS011;60843;52.062;4.508;2023-03-01T01:36:24;17.92;;;8.13;;
72728;SDS011;60843;52.062;4.508;2023-03-01T01:38:50;18.65;;;8.63;;
72728;SDS011;60843;52.062;4.508;2023-03-01T01:41:15;18.35;;;8.77;;
72728;SDS011;60843;52.062;4.508;2023-03-01T01:43:42;23.80;;;9.77;;
72728;SDS011;60843;52.062;4.508;2023-03-01T01:46:16;18.75;;;9.50;;
72728;SDS011;60843;52.062;4.508;2023-03-01T01:49:37;17.73;;;8.38;;
72728;SDS011;60843;52.062;4.508;2023-03-01T01:51:45;20.90;;;8.18;;
72728;SDS011;60843;52.062;4.508;2023-03-01T01:54:20;19.42;;;8.40;;
72728;SDS011;60843;52.062;4.508;2023-03-01T01:56:55;17.55;;;8.50;;
72728;SDS011;60843;52.062;4.508;2023-03-01T01:59:23;21.70;;;9.57;;
72728;SDS011;60843;52.062;4.508;2023-03-01T02:01:51;22.67;;;8.75;;
72728;SDS011;60843;52.062;4.508;2023-03-01T02:04:17;22.27;;;9.48;;
72728;SDS011;60843;52.062;4.508;2023-03-01T02:06:48;21.90;;;10.00;;
72728;SDS011;60843;52.062;4.508;2023-03-01T02:09:48;21.55;;;10.00;;
72728;SDS011;60843;52.062;4.508;2023-03-01T02:12:16;19.50;;;8.88;;
72728;SDS011;60843;52.062;4.508;2023-03-01T02:14:44;18.45;;;9.55;;
72728;SDS011;60843;52.062;4.508;2023-03-01T02:17:10;23.95;;;9.32;;
72728;SDS011;60843;52.062;4.508;2023-03-01T02:19:40;23.90;;;10.43;;
72728;SDS011;60843;52.062;4.508;2023-03-01T02:30:40;25.10;;;9.75;;
72728;SDS011;60843;52.062;4.508;2023-03-01T02:33:28;20.75;;;9.15;;
72728;SDS011;60843;52.062;4.508;2023-03-01T02:35:57;24.55;;;10.80;;
72728;SDS011;60843;52.062;4.508;2023-03-01T02:38:27;19.65;;;9.57;;
72728;SDS011;60843;52.062;4.508;2023-03-01T02:40:53;27.00;;;11.30;;
72728;SDS011;60843;52.062;4.508;2023-03-01T02:43:19;26.77;;;11.05;;
72728;SDS011;60843;52.062;4.508;2023-03-01T02:45:49;23.13;;;9.85;;
72728;SDS011;60843;52.062;4.508;2023-03-01T02:48:16;28.77;;;10.18;;
72728;SDS011;60843;52.062;4.508;2023-03-01T02:53:39;25.05;;;10.80;;
72728;SDS011;60843;52.062;4.508;2023-03-01T02:56:09;23.20;;;10.13;;
72728;SDS011;60843;52.062;4.508;2023-03-01T02:58:38;18.85;;;9.05;;
72728;SDS011;60843;52.062;4.508;2023-03-01T03:01:11;24.33;;;11.13;;
72728;SDS011;60843;52.062;4.508;2023-03-01T03:03:38;26.98;;;11.93;;
72728;SDS011;60843;52.062;4.508;2023-03-01T03:06:03;24.30;;;10.07;;
72728;SDS011;60843;52.062;4.508;2023-03-01T03:08:29;29.50;;;11.75;;
72728;SDS011;60843;52.062;4.508;2023-03-01T03:10:55;25.27;;;11.05;;
72728;SDS011;60843;52.062;4.508;2023-03-01T03:13:21;26.10;;;11.30;;
72728;SDS011;60843;52.062;4.508;2023-03-01T03:15:47;25.67;;;11.27;;
72728;SDS011;60843;52.062;4.508;2023-03-01T03:18:14;24.67;;;8.68;;
72728;SDS011;60843;52.062;4.508;2023-03-01T03:20:41;32.38;;;11.63;;
72728;SDS011;60843;52.062;4.508;2023-03-01T03:23:07;30.30;;;11.90;;
72728;SDS011;60843;52.062;4.508;2023-03-01T03:25:33;78.72;;;12.85;;
72728;SDS011;60843;52.062;4.508;2023-03-01T03:28:02;60.65;;;11.35;;
72728;SDS011;60843;52.062;4.508;2023-03-01T03:30:34;37.00;;;12.98;;
72728;SDS011;60843;52.062;4.508;2023-03-01T03:33:01;119.15;;;12.43;;
72728;SDS011;60843;52.062;4.508;2023-03-01T03:35:34;143.82;;;12.75;;
72728;SDS011;60843;52.062;4.508;2023-03-01T03:38:04;204.02;;;15.65;;
72728;SDS011;60843;52.062;4.508;2023-03-01T03:45:44;70.20;;;10.82;;
72728;SDS011;60843;52.062;4.508;2023-03-01T03:48:10;100.68;;;12.38;;
72728;SDS011;60843;52.062;4.508;2023-03-01T03:50:36;185.20;;;16.17;;
72728;SDS011;60843;52.062;4.508;2023-03-01T03:53:03;66.93;;;10.90;;
72728;SDS011;60843;52.062;4.508;2023-03-01T03:55:30;30.98;;;6.38;;
72728;SDS011;60843;52.062;4.508;2023-03-01T04:00:31;166.02;;;14.07;;
72728;SDS011;60843;52.062;4.508;2023-03-01T04:02:58;88.72;;;11.13;;
72728;SDS011;60843;52.062;4.508;2023-03-01T04:05:23;117.47;;;11.18;;
72728;SDS011;60843;52.062;4.508;2023-03-01T04:07:49;152.73;;;14.07;;
72728;SDS011;60843;52.062;4.508;2023-03-01T04:10:25;101.00;;;11.07;;
72728;SDS011;60843;52.062;4.508;2023-03-01T04:12:51;108.53;;;9.02;;
72728;SDS011;60843;52.062;4.508;2023-03-01T04:15:17;115.78;;;10.73;;
72728;SDS011;60843;52.062;4.508;2023-03-01T04:17:44;108.32;;;10.63;;
72728;SDS011;60843;52.062;4.508;2023-03-01T04:20:12;78.97;;;10.40;;
72728;SDS011;60843;52.062;4.508;2023-03-01T04:22:39;156.52;;;12.27;;
72728;SDS011;60843;52.062;4.508;2023-03-01T04:25:05;100.05;;;12.07;;
72728;SDS011;60843;52.062;4.508;2023-03-01T04:27:34;114.70;;;12.27;;
72728;SDS011;60843;52.062;4.508;2023-03-01T04:30:00;179.82;;;13.57;;
72728;SDS011;60843;52.062;4.508;2023-03-01T04:32:26;210.05;;;15.00;;
72728;SDS011;60843;52.062;4.508;2023-03-01T04:34:51;147.23;;;15.13;;
72728;SDS011;60843;52.062;4.508;2023-03-01T04:37:17;278.17;;;16.17;;
72728;SDS011;60843;52.062;4.508;2023-03-01T04:39:42;191.68;;;14.27;;
72728;SDS011;60843;52.062;4.508;2023-03-01T04:42:11;106.57;;;10.88;;
72728;SDS011;60843;52.062;4.508;2023-03-01T04:44:37;146.75;;;12.88;;
72728;SDS011;60843;52.062;4.508;2023-03-01T04:47:02;98.57;;;11.88;;
72728;SDS011;60843;52.062;4.508;2023-03-01T04:49:28;84.82;;;11.15;;
72728;SDS011;60843;52.062;4.508;2023-03-01T04:51:53;150.67;;;12.90;;
72728;SDS011;60843;52.062;4.508;2023-03-01T04:54:19;164.10;;;13.77;;
72728;SDS011;60843;52.062;4.508;2023-03-01T04:56:44;177.30;;;13.20;;
72728;SDS011;60843;52.062;4.508;2023-03-01T04:59:10;72.18;;;11.70;;
72728;SDS011;60843;52.062;4.508;2023-03-01T05:01:38;112.75;;;11.43;;
72728;SDS011;60843;52.062;4.508;2023-03-01T05:04:04;56.35;;;11.10;;
72728;SDS011;60843;52.062;4.508;2023-03-01T05:06:30;144.95;;;13.88;;
72728;SDS011;60843;52.062;4.508;2023-03-01T05:08:56;150.20;;;13.27;;
72728;SDS011;60843;52.062;4.508;2023-03-01T05:11:21;174.88;;;14.30;;
72728;SDS011;60843;52.062;4.508;2023-03-01T05:13:47;43.53;;;10.27;;
72728;SDS011;60843;52.062;4.508;2023-03-01T05:16:14;114.95;;;12.20;;
72728;SDS011;60843;52.062;4.508;2023-03-01T05:18:41;115.90;;;12.80;;
72728;SDS011;60843;52.062;4.508;2023-03-01T05:21:12;48.95;;;11.40;;
72728;SDS011;60843;52.062;4.508;2023-03-01T05:23:40;33.47;;;10.82;;
72728;SDS011;60843;52.062;4.508;2023-03-01T05:26:06;90.50;;;13.23;;
72728;SDS011;60843;52.062;4.508;2023-03-01T05:28:32;64.60;;;11.20;;
72728;SDS011;60843;52.062;4.508;2023-03-01T05:30:58;35.78;;;10.65;;
72728;SDS011;60843;52.062;4.508;2023-03-01T05:33:24;32.65;;;10.88;;
72728;SDS011;60843;52.062;4.508;2023-03-01T05:35:50;39.08;;;11.18;;
72728;SDS011;60843;52.062;4.508;2023-03-01T05:38:17;33.92;;;10.52;;
72728;SDS011;60843;52.062;4.508;2023-03-01T05:40:43;23.40;;;10.23;;
72728;SDS011;60843;52.062;4.508;2023-03-01T05:43:10;30.00;;;10.68;;
72728;SDS011;60843;52.062;4.508;2023-03-01T05:45:37;18.33;;;8.18;;
72728;SDS011;60843;52.062;4.508;2023-03-01T05:48:03;24.10;;;8.85;;
72728;SDS011;60843;52.062;4.508;2023-03-01T05:50:32;21.42;;;8.32;;
72728;SDS011;60843;52.062;4.508;2023-03-01T05:55:25;44.15;;;7.82;;
72728;SDS011;60843;52.062;4.508;2023-03-01T05:57:51;21.40;;;8.10;;
72728;SDS011;60843;52.062;4.508;2023-03-01T06:00:17;12.93;;;6.13;;
72728;SDS011;60843;52.062;4.508;2023-03-01T06:02:45;48.58;;;7.95;;
72728;SDS011;60843;52.062;4.508;2023-03-01T06:05:11;86.78;;;8.98;;
72728;SDS011;60843;52.062;4.508;2023-03-01T06:07:37;134.18;;;10.93;;
72728;SDS011;60843;52.062;4.508;2023-03-01T06:10:04;101.07;;;9.02;;
72728;SDS011;60843;52.062;4.508;2023-03-01T06:12:31;111.68;;;9.80;;
72728;SDS011;60843;52.062;4.508;2023-03-01T06:14:57;121.60;;;9.68;;
72728;SDS011;60843;52.062;4.508;2023-03-01T06:17:23;67.70;;;9.18;;
72728;SDS011;60843;52.062;4.508;2023-03-01T06:19:49;70.38;;;9.32;;
72728;SDS011;60843;52.062;4.508;2023-03-01T06:22:14;113.80;;;11.43;;
72728;SDS011;60843;52.062;4.508;2023-03-01T06:24:40;151.80;;;11.50;;
72728;SDS011;60843;52.062;4.508;2023-03-01T06:27:05;39.10;;;9.10;;
72728;SDS011;60843;52.062;4.508;2023-03-01T06:29:31;77.47;;;9.43;;
72728;SDS011;60843;52.062;4.508;2023-03-01T06:31:56;67.00;;;11.00;;
72728;SDS011;60843;52.062;4.508;2023-03-01T06:34:21;28.80;;;10.50;;
72728;SDS011;60843;52.062;4.508;2023-03-01T06:36:47;21.17;;;9.32;;
72728;SDS011;60843;52.062;4.508;2023-03-01T06:39:12;24.90;;;8.75;;
72728;SDS011;60843;52.062;4.508;2023-03-01T06:41:38;24.70;;;9.18;;
72728;SDS011;60843;52.062;4.508;2023-03-01T06:44:03;20.02;;;8.07;;
72728;SDS011;60843;52.062;4.508;2023-03-01T06:46:30;21.38;;;9.88;;
72728;SDS011;60843;52.062;4.508;2023-03-01T06:48:55;20.23;;;9.82;;
72728;SDS011;60843;52.062;4.508;2023-03-01T06:51:21;20.90;;;10.07;;
72728;SDS011;60843;52.062;4.508;2023-03-01T06:53:46;19.77;;;9.13;;
72728;SDS011;60843;52.062;4.508;2023-03-01T06:56:12;21.25;;;10.30;;
72728;SDS011;60843;52.062;4.508;2023-03-01T06:58:37;21.15;;;9.57;;
72728;SDS011;60843;52.062;4.508;2023-03-01T07:01:06;22.10;;;9.90;;
72728;SDS011;60843;52.062;4.508;2023-03-01T07:03:32;24.70;;;10.50;;
72728;SDS011;60843;52.062;4.508;2023-03-01T07:05:58;20.73;;;9.17;;
72728;SDS011;60843;52.062;4.508;2023-03-01T07:08:23;23.50;;;10.35;;
72728;SDS011;60843;52.062;4.508;2023-03-01T07:10:54;20.95;;;10.52;;
72728;SDS011;60843;52.062;4.508;2023-03-01T07:13:20;27.13;;;10.93;;
72728;SDS011;60843;52.062;4.508;2023-03-01T07:15:46;22.75;;;11.77;;
72728;SDS011;60843;52.062;4.508;2023-03-01T07:18:11;27.17;;;11.60;;
72728;SDS011;60843;52.062;4.508;2023-03-01T07:20:36;25.57;;;11.23;;
72728;SDS011;60843;52.062;4.508;2023-03-01T07:23:02;35.57;;;13.40;;
72728;SDS011;60843;52.062;4.508;2023-03-01T07:25:27;29.27;;;12.15;;
72728;SDS011;60843;52.062;4.508;2023-03-01T07:27:53;28.23;;;11.60;;
72728;SDS011;60843;52.062;4.508;2023-03-01T07:30:19;26.65;;;11.48;;
72728;SDS011;60843;52.062;4.508;2023-03-01T07:32:45;28.48;;;11.80;;
72728;SDS011;60843;52.062;4.508;2023-03-01T07:35:11;27.52;;;12.75;;
72728;SDS011;60843;52.062;4.508;2023-03-01T07:37:36;31.58;;;13.60;;
72728;SDS011;60843;52.062;4.508;2023-03-01T07:40:02;28.60;;;11.77;;
72728;SDS011;60843;52.062;4.508;2023-03-01T07:42:27;28.58;;;12.65;;
72728;SDS011;60843;52.062;4.508;2023-03-01T07:44:53;31.02;;;13.00;;
72728;SDS011;60843;52.062;4.508;2023-03-01T07:47:18;27.63;;;13.02;;
72728;SDS011;60843;52.062;4.508;2023-03-01T07:49:44;30.77;;;14.20;;
72728;SDS011;60843;52.062;4.508;2023-03-01T07:52:11;34.20;;;14.15;;
72728;SDS011;60843;52.062;4.508;2023-03-01T07:54:36;31.67;;;14.02;;
72728;SDS011;60843;52.062;4.508;2023-03-01T07:57:02;30.92;;;15.27;;
72728;SDS011;60843;52.062;4.508;2023-03-01T07:59:27;33.67;;;14.05;;
72728;SDS011;60843;52.062;4.508;2023-03-01T08:01:55;30.98;;;14.95;;
72728;SDS011;60843;52.062;4.508;2023-03-01T08:04:21;32.90;;;14.90;;
72728;SDS011;60843;52.062;4.508;2023-03-01T08:06:47;33.90;;;14.55;;
72728;SDS011;60843;52.062;4.508;2023-03-01T08:09:12;32.75;;;14.98;;
72728;SDS011;60843;52.062;4.508;2023-03-01T08:11:38;33.47;;;15.65;;
72728;SDS011;60843;52.062;4.508;2023-03-01T08:14:03;33.50;;;15.27;;
72728;SDS011;60843;52.062;4.508;2023-03-01T08:16:29;36.03;;;15.23;;
72728;SDS011;60843;52.062;4.508;2023-03-01T08:18:55;34.22;;;15.85;;
72728;SDS011;60843;52.062;4.508;2023-03-01T08:21:24;35.15;;;15.35;;
72728;SDS011;60843;52.062;4.508;2023-03-01T08:23:49;31.90;;;15.57;;
72728;SDS011;60843;52.062;4.508;2023-03-01T08:26:19;32.13;;;14.63;;
72728;SDS011;60843;52.062;4.508;2023-03-01T08:28:45;29.20;;;13.15;;
72728;SDS011;60843;52.062;4.508;2023-03-01T08:31:28;33.38;;;14.13;;
72728;SDS011;60843;52.062;4.508;2023-03-01T08:34:02;33.65;;;14.00;;
72728;SDS011;60843;52.062;4.508;2023-03-01T08:36:30;32.53;;;14.88;;
72728;SDS011;60843;52.062;4.508;2023-03-01T08:39:06;33.53;;;13.88;;
72728;SDS011;60843;52.062;4.508;2023-03-01T08:41:33;27.80;;;12.65;;
72728;SDS011;60843;52.062;4.508;2023-03-01T08:43:58;32.08;;;12.88;;
72728;SDS011;60843;52.062;4.508;2023-03-01T08:46:25;28.38;;;13.98;;
72728;SDS011;60843;52.062;4.508;2023-03-01T08:48:51;25.88;;;11.98;;
72728;SDS011;60843;52.062;4.508;2023-03-01T08:51:18;25.05;;;11.90;;
72728;SDS011;60843;52.062;4.508;2023-03-01T08:53:44;24.85;;;12.52;;
72728;SDS011;60843;52.062;4.508;2023-03-01T08:56:10;27.13;;;12.57;;
72728;SDS011;60843;52.062;4.508;2023-03-01T08:58:36;26.17;;;11.98;;
72728;SDS011;60843;52.062;4.508;2023-03-01T09:01:09;25.20;;;12.07;;
72728;SDS011;60843;52.062;4.508;2023-03-01T09:03:35;31.10;;;12.55;;
72728;SDS011;60843;52.062;4.508;2023-03-01T09:06:01;24.83;;;11.30;;
72728;SDS011;60843;52.062;4.508;2023-03-01T09:08:27;21.85;;;11.55;;
72728;SDS011;60843;52.062;4.508;2023-03-01T09:10:53;20.05;;;9.50;;
72728;SDS011;60843;52.062;4.508;2023-03-01T09:13:18;17.25;;;8.77;;
72728;SDS011;60843;52.062;4.508;2023-03-01T09:15:44;16.17;;;8.18;;
72728;SDS011;60843;52.062;4.508;2023-03-01T09:18:10;17.23;;;8.32;;
72728;SDS011;60843;52.062;4.508;2023-03-01T09:20:35;17.92;;;7.38;;
72728;SDS011;60843;52.062;4.508;2023-03-01T09:23:01;16.98;;;8.90;;
72728;SDS011;60843;52.062;4.508;2023-03-01T09:25:27;15.35;;;6.22;;
72728;SDS011;60843;52.062;4.508;2023-03-01T09:27:53;12.73;;;7.32;;
72728;SDS011;60843;52.062;4.508;2023-03-01T09:30:20;13.23;;;7.32;;
72728;SDS011;60843;52.062;4.508;2023-03-01T09:32:46;19.10;;;8.55;;
72728;SDS011;60843;52.062;4.508;2023-03-01T09:35:11;12.05;;;6.40;;
72728;SDS011;60843;52.062;4.508;2023-03-01T09:37:37;12.20;;;6.50;;
72728;SDS011;60843;52.062;4.508;2023-03-01T09:40:04;10.57;;;5.05;;
72728;SDS011;60843;52.062;4.508;2023-03-01T09:42:32;11.73;;;5.85;;
72728;SDS011;60843;52.062;4.508;2023-03-01T09:47:27;15.50;;;5.57;;
72728;SDS011;60843;52.062;4.508;2023-03-01T09:50:02;13.73;;;7.45;;
72728;SDS011;60843;52.062;4.508;2023-03-01T09:55:17;15.07;;;6.80;;
72728;SDS011;60843;52.062;4.508;2023-03-01T09:57:54;13.20;;;7.15;;
72728;SDS011;60843;52.062;4.508;2023-03-01T10:00:30;11.27;;;6.07;;
72728;SDS011;60843;52.062;4.508;2023-03-01T10:03:02;10.50;;;5.25;;
72728;SDS011;60843;52.062;4.508;2023-03-01T10:08:29;8.95;;;5.13;;
72728;SDS011;60843;52.062;4.508;2023-03-01T10:11:04;8.63;;;4.32;;
72728;SDS011;60843;52.062;4.508;2023-03-01T10:13:47;6.97;;;3.78;;
72728;SDS011;60843;52.062;4.508;2023-03-01T10:16:18;7.88;;;4.07;;
72728;SDS011;60843;52.062;4.508;2023-03-01T10:18:53;7.68;;;3.78;;
72728;SDS011;60843;52.062;4.508;2023-03-01T10:21:21;7.45;;;3.60;;
72728;SDS011;60843;52.062;4.508;2023-03-01T10:23:49;7.35;;;4.22;;
72728;SDS011;60843;52.062;4.508;2023-03-01T10:31:47;7.57;;;3.70;;
72728;SDS011;60843;52.062;4.508;2023-03-01T10:34:19;6.53;;;3.08;;
72728;SDS011;60843;52.062;4.508;2023-03-01T10:37:10;7.88;;;4.53;;
72728;SDS011;60843;52.062;4.508;2023-03-01T10:39:53;6.72;;;3.80;;
72728;SDS011;60843;52.062;4.508;2023-03-01T10:42:27;6.25;;;3.60;;
72728;SDS011;60843;52.062;4.508;2023-03-01T10:44:55;3.90;;;2.05;;
72728;SDS011;60843;52.062;4.508;2023-03-01T10:47:24;7.45;;;4.38;;
72728;SDS011;60843;52.062;4.508;2023-03-01T10:49:53;8.90;;;3.92;;
72728;SDS011;60843;52.062;4.508;2023-03-01T10:52:20;8.18;;;4.22;;
72728;SDS011;60843;52.062;4.508;2023-03-01T10:54:55;6.95;;;3.58;;
72728;SDS011;60843;52.062;4.508;2023-03-01T10:57:30;6.95;;;3.65;;
72728;SDS011;60843;52.062;4.508;2023-03-01T11:00:10;6.30;;;3.08;;
72728;SDS011;60843;52.062;4.508;2023-03-01T11:02:40;7.63;;;4.10;;
72728;SDS011;60843;52.062;4.508;2023-03-01T11:07:49;7.43;;;3.33;;
72728;SDS011;60843;52.062;4.508;2023-03-01T11:10:26;11.60;;;4.28;;
72728;SDS011;60843;52.062;4.508;2023-03-01T11:12:53;3.85;;;2.00;;
72728;SDS011;60843;52.062;4.508;2023-03-01T11:15:30;7.03;;;3.90;;
72728;SDS011;60843;52.062;4.508;2023-03-01T11:17:56;4.72;;;2.90;;
72728;SDS011;60843;52.062;4.508;2023-03-01T11:20:26;9.52;;;4.90;;
72728;SDS011;60843;52.062;4.508;2023-03-01T11:22:59;8.93;;;4.38;;
72728;SDS011;60843;52.062;4.508;2023-03-01T11:25:29;8.85;;;3.95;;
72728;SDS011;60843;52.062;4.508;2023-03-01T11:27:57;6.13;;;3.25;;
72728;SDS011;60843;52.062;4.508;2023-03-01T11:36:11;5.35;;;3.00;;
72728;SDS011;60843;52.062;4.508;2023-03-01T11:39:03;8.05;;;3.85;;
72728;SDS011;60843;52.062;4.508;2023-03-01T11:41:38;8.15;;;3.90;;
72728;SDS011;60843;52.062;4.508;2023-03-01T11:46:41;9.20;;;4.00;;
72728;SDS011;60843;52.062;4.508;2023-03-01T11:49:28;9.13;;;4.70;;
72728;SDS011;60843;52.062;4.508;2023-03-01T11:54:47;7.60;;;4.45;;
72728;SDS011;60843;52.062;4.508;2023-03-01T12:06:38;13.48;;;5.13;;
72728;SDS011;60843;52.062;4.508;2023-03-01T12:15:05;9.32;;;4.68;;
72728;SDS011;60843;52.062;4.508;2023-03-01T12:26:48;14.47;;;6.50;;
72728;SDS011;60843;52.062;4.508;2023-03-01T12:34:39;11.23;;;5.53;;
72728;SDS011;60843;52.062;4.508;2023-03-01T12:50:57;9.52;;;4.72;;
72728;SDS011;60843;52.062;4.508;2023-03-01T12:53:26;11.13;;;4.80;;
72728;SDS011;60843;52.062;4.508;2023-03-01T12:55:54;15.07;;;7.03;;
72728;SDS011;60843;52.062;4.508;2023-03-01T13:17:00;6.03;;;3.40;;
72728;SDS011;60843;52.062;4.508;2023-03-01T13:19:26;11.15;;;3.70;;
72728;SDS011;60843;52.062;4.508;2023-03-01T13:21:54;5.40;;;3.33;;
72728;SDS011;60843;52.062;4.508;2023-03-01T13:24:27;7.32;;;3.75;;
72728;SDS011;60843;52.062;4.508;2023-03-01T13:29:30;4.65;;;2.38;;
72728;SDS011;60843;52.062;4.508;2023-03-01T13:32:23;2.28;;;1.48;;
72728;SDS011;60843;52.062;4.508;2023-03-01T13:34:53;6.43;;;3.60;;
72728;SDS011;60843;52.062;4.508;2023-03-01T13:37:27;3.75;;;2.20;;
72728;SDS011;60843;52.062;4.508;2023-03-01T13:39:58;6.07;;;3.25;;
72728;SDS011;60843;52.062;4.508;2023-03-01T13:42:33;11.57;;;3.17;;
72728;SDS011;60843;52.062;4.508;2023-03-01T13:45:02;5.53;;;2.78;;
72728;SDS011;60843;52.062;4.508;2023-03-01T13:47:29;7.90;;;3.50;;
72728;SDS011;60843;52.062;4.508;2023-03-01T13:49:59;5.18;;;3.00;;
72728;SDS011;60843;52.062;4.508;2023-03-01T13:57:47;4.97;;;2.38;;
72728;SDS011;60843;52.062;4.508;2023-03-01T14:05:40;5.20;;;2.92;;
72728;SDS011;60843;52.062;4.508;2023-03-01T14:08:21;6.82;;;2.80;;
72728;SDS011;60843;52.062;4.508;2023-03-01T14:10:59;3.75;;;1.75;;
72728;SDS011;60843;52.062;4.508;2023-03-01T14:13:54;6.63;;;3.10;;
72728;SDS011;60843;52.062;4.508;2023-03-01T14:16:56;5.45;;;2.85;;
72728;SDS011;60843;52.062;4.508;2023-03-01T14:19:36;5.32;;;2.97;;
72728;SDS011;60843;52.062;4.508;2023-03-01T14:22:10;6.18;;;3.38;;
72728;SDS011;60843;52.062;4.508;2023-03-01T14:24:52;5.85;;;2.97;;
72728;SDS011;60843;52.062;4.508;2023-03-01T14:27:30;6.75;;;3.25;;
72728;SDS011;60843;52.062;4.508;2023-03-01T14:30:01;7.00;;;3.05;;
72728;SDS011;60843;52.062;4.508;2023-03-01T14:33:02;6.97;;;3.17;;
72728;SDS011;60843;52.062;4.508;2023-03-01T14:35:32;5.35;;;2.80;;
72728;SDS011;60843;52.062;4.508;2023-03-01T14:38:01;6.32;;;3.33;;
72728;SDS011;60843;52.062;4.508;2023-03-01T14:40:28;6.03;;;3.30;;
72728;SDS011;60843;52.062;4.508;2023-03-01T14:43:01;7.45;;;3.80;;
72728;SDS011;60843;52.062;4.508;2023-03-01T14:45:34;6.30;;;2.42;;
72728;SDS011;60843;52.062;4.508;2023-03-01T14:48:00;5.88;;;3.38;;
72728;SDS011;60843;52.062;4.508;2023-03-01T14:50:28;5.72;;;3.00;;
72728;SDS011;60843;52.062;4.508;2023-03-01T14:53:00;4.32;;;2.65;;
72728;SDS011;60843;52.062;4.508;2023-03-01T14:55:31;3.97;;;2.15;;
72728;SDS011;60843;52.062;4.508;2023-03-01T14:57:59;4.45;;;3.08;;
72728;SDS011;60843;52.062;4.508;2023-03-01T15:00:29;6.55;;;3.70;;
72728;SDS011;60843;52.062;4.508;2023-03-01T15:02:58;9.20;;;3.10;;
72728;SDS011;60843;52.062;4.508;2023-03-01T15:05:32;3.90;;;1.92;;
72728;SDS011;60843;52.062;4.508;2023-03-01T15:08:00;4.78;;;2.85;;
72728;SDS011;60843;52.062;4.508;2023-03-01T15:10:28;4.60;;;2.95;;
72728;SDS011;60843;52.062;4.508;2023-03-01T15:12:56;7.47;;;3.20;;
72728;SDS011;60843;52.062;4.508;2023-03-01T15:15:36;5.22;;;3.15;;
72728;SDS011;60843;52.062;4.508;2023-03-01T15:18:14;4.72;;;2.80;;
72728;SDS011;60843;52.062;4.508;2023-03-01T15:20:45;5.35;;;2.83;;
72728;SDS011;60843;52.062;4.508;2023-03-01T15:23:28;3.88;;;2.03;;
72728;SDS011;60843;52.062;4.508;2023-03-01T15:25:55;7.45;;;3.03;;
72728;SDS011;60843;52.062;4.508;2023-03-01T15:28:22;5.47;;;2.75;;
72728;SDS011;60843;52.062;4.508;2023-03-01T15:30:54;6.47;;;3.05;;
72728;SDS011;60843;52.062;4.508;2023-03-01T15:33:27;6.85;;;3.17;;
72728;SDS011;60843;52.062;4.508;2023-03-01T15:35:58;6.82;;;2.95;;
72728;SDS011;60843;52.062;4.508;2023-03-01T15:40:57;4.07;;;1.73;;
72728;SDS011;60843;52.062;4.508;2023-03-01T15:43:38;3.40;;;1.90;;
72728;SDS011;60843;52.062;4.508;2023-03-01T15:46:17;6.45;;;2.88;;
72728;SDS011;60843;52.062;4.508;2023-03-01T15:48:50;3.63;;;1.85;;
72728;SDS011;60843;52.062;4.508;2023-03-01T15:51:18;4.55;;;2.58;;
72728;SDS011;60843;52.062;4.508;2023-03-01T15:53:54;3.67;;;2.13;;
72728;SDS011;60843;52.062;4.508;2023-03-01T15:56:22;7.05;;;2.35;;
72728;SDS011;60843;52.062;4.508;2023-03-01T15:58:48;3.95;;;1.98;;
72728;SDS011;60843;52.062;4.508;2023-03-01T16:01:14;6.43;;;2.65;;
72728;SDS011;60843;52.062;4.508;2023-03-01T16:03:47;6.07;;;2.08;;
72728;SDS011;60843;52.062;4.508;2023-03-01T16:06:13;6.32;;;2.88;;
72728;SDS011;60843;52.062;4.508;2023-03-01T16:08:38;5.90;;;2.53;;
72728;SDS011;60843;52.062;4.508;2023-03-01T16:11:05;6.38;;;2.08;;
72728;SDS011;60843;52.062;4.508;2023-03-01T16:13:43;6.13;;;2.60;;
72728;SDS011;60843;52.062;4.508;2023-03-01T16:16:09;6.68;;;2.83;;
72728;SDS011;60843;52.062;4.508;2023-03-01T16:18:37;5.60;;;2.45;;
72728;SDS011;60843;52.062;4.508;2023-03-01T16:21:04;5.63;;;3.08;;
72728;SDS011;60843;52.062;4.508;2023-03-01T16:23:30;7.55;;;3.28;;
72728;SDS011;60843;52.062;4.508;2023-03-01T16:25:58;5.88;;;2.85;;
72728;SDS011;60843;52.062;4.508;2023-03-01T16:28:24;4.70;;;2.17;;
72728;SDS011;60843;52.062;4.508;2023-03-01T16:30:50;5.38;;;2.60;;
72728;SDS011;60843;52.062;4.508;2023-03-01T16:33:15;6.25;;;3.00;;
72728;SDS011;60843;52.062;4.508;2023-03-01T16:35:41;9.73;;;4.38;;
72728;SDS011;60843;52.062;4.508;2023-03-01T16:38:08;13.35;;;5.15;;
72728;SDS011;60843;52.062;4.508;2023-03-01T16:40:33;11.80;;;4.80;;
72728;SDS011;60843;52.062;4.508;2023-03-01T16:42:59;22.73;;;7.75;;
72728;SDS011;60843;52.062;4.508;2023-03-01T16:45:26;7.45;;;4.03;;
72728;SDS011;60843;52.062;4.508;2023-03-01T16:47:53;6.38;;;3.38;;
72728;SDS011;60843;52.062;4.508;2023-03-01T16:50:18;7.57;;;3.60;;
72728;SDS011;60843;52.062;4.508;2023-03-01T16:52:44;6.97;;;3.22;;